WXM80 ListenWXM80 Stop

You find our weather info also at:

UK Metoffice

WeatherCloud

Weather Underground

Northeastern Weather Network

AWEKAS

Citizen Weather Observer Program (CWOP)

HAMweather, WeatherForYou, PWS Weather


Weather Underground History page Text

Daily Summary for May 13, 2017 Units:  English    Metric   Both
« Previous Day
Next Day »
Daily Weekly Monthly Yearly Custom
  High: Low: Average:
Temperature: 52.1 °F 45.7 °F 49.5 °F
Dew Point: 50.6 °F 44.9 °F 47.4 °F
Humidity: 97 % 83 % 93 %
Wind Speed: 15.6 mph 0.0 mph 4.5 mph
Wind Gust: 27.6 mph - -
Wind:- - East
Pressure: 29.99 in 29.73 in -
Precipitation: 1.16 in    
Historical Graphs
 
 
Tabular Data for May 13, 2017
Time Temperature Dew Point Pressure Wind Wind Speed Wind Gust Humidity Rainfall Rate (Hourly)
00:04 52.1 °F 47.4 °F 29.99 in SE 0.1 mph 2.3 mph 84 % 0.00 in
00:10 52.1 °F 47.4 °F 29.99 in SSE 0.9 mph 3.5 mph 84 % 0.00 in
00:15 52.1 °F 47.1 °F 29.99 in SSE 0.6 mph 3.5 mph 83 % 0.00 in
00:20 52.1 °F 47.1 °F 29.99 in SSE 0.8 mph 3.0 mph 83 % 0.00 in
00:25 52.1 °F 47.1 °F 29.99 in SE 2.3 mph 5.8 mph 83 % 0.00 in
00:30 52.1 °F 47.1 °F 29.99 in SE 1.2 mph 5.8 mph 83 % 0.00 in
00:35 52.1 °F 47.1 °F 29.99 in Calm   1.2 mph 83 % 0.00 in
00:40 52.1 °F 47.1 °F 29.99 in SE 0.3 mph 2.3 mph 83 % 0.00 in
00:45 52.1 °F 47.1 °F 29.99 in SE 0.5 mph 2.3 mph 83 % 0.00 in
00:50 52.0 °F 47.3 °F 29.98 in SSE 1.3 mph 4.0 mph 84 % 0.00 in
00:55 52.0 °F 47.0 °F 29.98 in SE 0.3 mph 3.5 mph 83 % 0.00 in
01:00 52.0 °F 47.0 °F 29.98 in SE 0.1 mph 3.5 mph 83 % 0.00 in
01:05 51.9 °F 46.9 °F 29.98 in Calm     83 % 0.00 in
01:10 51.9 °F 46.9 °F 29.98 in Calm   1.2 mph 83 % 0.00 in
01:15 51.9 °F 47.2 °F 29.97 in Calm     84 % 0.00 in
01:20 51.9 °F 47.2 °F 29.97 in SSE 2.4 mph 3.5 mph 84 % 0.00 in
01:25 51.9 °F 47.2 °F 29.97 in Calm     84 % 0.00 in
01:30 51.8 °F 47.1 °F 29.97 in SSE 0.3 mph 1.2 mph 84 % 0.00 in
01:35 51.8 °F 46.8 °F 29.97 in SSE 1.8 mph 3.5 mph 83 % 0.00 in
01:40 51.8 °F 46.8 °F 29.97 in Calm   1.2 mph 83 % 0.00 in
01:45 51.8 °F 46.8 °F 29.96 in Calm     83 % 0.00 in
01:50 51.8 °F 46.8 °F 29.96 in SE 0.3 mph 2.3 mph 83 % 0.00 in
01:55 51.7 °F 46.7 °F 29.96 in Calm   4.6 mph 83 % 0.00 in
02:00 51.7 °F 47.0 °F 29.95 in SE 0.1 mph 1.2 mph 84 % 0.00 in
02:06 51.7 °F 47.0 °F 29.96 in SE 2.0 mph 6.0 mph 84 % 0.00 in
02:11 51.6 °F 46.6 °F 29.95 in Calm   3.0 mph 83 % 0.00 in
02:16 51.6 °F 46.6 °F 29.95 in Calm   2.3 mph 83 % 0.00 in
02:21 51.6 °F 46.6 °F 29.96 in Calm   1.2 mph 83 % 0.00 in
02:26 51.6 °F 46.6 °F 29.96 in Calm   3.5 mph 83 % 0.00 in
02:31 51.5 °F 46.5 °F 29.95 in Calm     83 % 0.00 in
02:36 51.5 °F 46.5 °F 29.95 in Calm     83 % 0.00 in
02:41 51.5 °F 46.8 °F 29.95 in Calm     84 % 0.00 in
02:46 51.5 °F 46.8 °F 29.95 in Calm   1.0 mph 84 % 0.00 in
02:51 51.4 °F 46.4 °F 29.95 in Calm   1.2 mph 83 % 0.00 in
02:54 51.5 °F 46.8 °F 29.95 in Calm     84 % 0.00 in
02:59 51.4 °F 46.7 °F 29.95 in Calm     84 % 0.00 in
03:04 51.4 °F 46.4 °F 29.95 in Calm   1.2 mph 83 % 0.00 in
03:09 51.4 °F 46.7 °F 29.95 in Calm     84 % 0.00 in
03:14 51.4 °F 46.7 °F 29.95 in SSE 1.3 mph 2.3 mph 84 % 0.00 in
03:19 51.4 °F 46.7 °F 29.95 in SSE 0.8 mph 2.3 mph 84 % 0.00 in
03:24 51.4 °F 46.7 °F 29.95 in SSE 0.8 mph 1.2 mph 84 % 0.00 in
03:29 51.4 °F 46.7 °F 29.95 in SSE 0.1 mph 1.2 mph 84 % 0.00 in
03:34 51.4 °F 47.0 °F 29.95 in Calm   2.3 mph 85 % 0.00 in
03:39 51.3 °F 46.9 °F 29.95 in SSE 1.4 mph 3.0 mph 85 % 0.00 in
03:45 51.3 °F 46.9 °F 29.95 in Calm     85 % 0.00 in
03:50 51.3 °F 46.9 °F 29.94 in Calm   2.3 mph 85 % 0.00 in
03:55 51.3 °F 46.9 °F 29.95 in SSE 0.4 mph 2.3 mph 85 % 0.00 in
04:00 51.2 °F 46.8 °F 29.94 in SSE 0.3 mph 2.3 mph 85 % 0.00 in
04:05 51.2 °F 46.8 °F 29.94 in Calm   1.2 mph 85 % 0.00 in
04:10 51.2 °F 46.8 °F 29.94 in SSE 0.2 mph 1.2 mph 85 % 0.00 in
04:15 51.2 °F 46.8 °F 29.94 in SSE 1.6 mph 4.6 mph 85 % 0.00 in
04:20 51.2 °F 46.8 °F 29.94 in SSE 1.3 mph 3.5 mph 85 % 0.00 in
04:25 51.2 °F 46.8 °F 29.94 in SSE 1.1 mph 4.0 mph 85 % 0.00 in
04:30 51.1 °F 46.7 °F 29.94 in SE 1.7 mph 3.5 mph 85 % 0.00 in
04:35 51.1 °F 46.7 °F 29.94 in Calm   1.2 mph 85 % 0.00 in
04:40 51.0 °F 46.6 °F 29.94 in SSE 1.0 mph 3.5 mph 85 % 0.00 in
04:45 51.0 °F 46.6 °F 29.93 in Calm   1.2 mph 85 % 0.00 in
04:50 50.9 °F 46.6 °F 29.93 in SE 0.9 mph 2.3 mph 85 % 0.00 in
04:55 50.9 °F 46.6 °F 29.93 in SE 0.3 mph 1.2 mph 85 % 0.00 in
05:00 50.8 °F 46.5 °F 29.93 in Calm   1.2 mph 85 % 0.00 in
05:05 50.8 °F 46.8 °F 29.93 in Calm   1.2 mph 86 % 0.00 in
05:10 50.8 °F 46.8 °F 29.93 in SE 0.4 mph 2.3 mph 86 % 0.00 in
05:15 50.7 °F 46.7 °F 29.93 in SE 0.1 mph 1.2 mph 86 % 0.00 in
05:20 50.7 °F 46.7 °F 29.93 in Calm     86 % 0.00 in
05:25 50.6 °F 46.6 °F 29.93 in SE 0.5 mph 2.3 mph 86 % 0.00 in
05:30 50.5 °F 46.8 °F 29.93 in Calm     87 % 0.00 in
05:35 50.5 °F 46.8 °F 29.93 in Calm     87 % 0.00 in
05:40 50.4 °F 47.0 °F 29.93 in SE 0.3 mph 1.2 mph 88 % 0.00 in
05:45 50.4 °F 47.0 °F 29.93 in Calm   1.2 mph 88 % 0.00 in
05:50 50.4 °F 47.3 °F 29.93 in SE 0.6 mph 2.3 mph 89 % 0.00 in
05:55 50.3 °F 47.2 °F 29.93 in SE 0.2 mph 1.2 mph 89 % 0.00 in
06:00 50.3 °F 47.2 °F 29.92 in SE 0.1 mph 1.2 mph 89 % 0.00 in
06:05 50.2 °F 47.1 °F 29.93 in SE 0.3 mph 2.3 mph 89 % 0.00 in
06:10 50.1 °F 47.0 °F 29.93 in SE 0.1 mph 1.2 mph 89 % 0.00 in
06:15 50.1 °F 46.7 °F 29.93 in SE 0.5 mph 1.2 mph 88 % 0.00 in
06:20 50.1 °F 47.0 °F 29.92 in SE 0.2 mph 1.2 mph 89 % 0.00 in
06:25 50.1 °F 47.0 °F 29.92 in SE 0.9 mph 2.0 mph 89 % 0.00 in
06:30 50.0 °F 46.9 °F 29.92 in SE 1.0 mph 2.3 mph 89 % 0.00 in
06:35 50.0 °F 46.9 °F 29.92 in SE 1.0 mph 2.3 mph 89 % 0.00 in
06:40 50.0 °F 47.2 °F 29.92 in SE 1.1 mph 2.3 mph 90 % 0.00 in
06:46 49.9 °F 47.1 °F 29.92 in SE 0.5 mph 3.5 mph 90 % 0.00 in
06:51 49.9 °F 47.1 °F 29.92 in Calm   1.0 mph 90 % 0.00 in
06:56 49.9 °F 47.4 °F 29.92 in Calm   2.0 mph 91 % 0.00 in
07:01 50.0 °F 47.5 °F 29.92 in SE 0.1 mph 1.2 mph 91 % 0.00 in
07:06 49.9 °F 47.4 °F 29.92 in SE 0.1 mph 2.3 mph 91 % 0.00 in
07:11 49.9 °F 47.4 °F 29.92 in SE 0.5 mph 2.3 mph 91 % 0.00 in
07:16 49.9 °F 47.4 °F 29.92 in East 0.7 mph 2.3 mph 91 % 0.00 in
07:21 49.9 °F 47.4 °F 29.91 in East 0.5 mph 2.3 mph 91 % 0.00 in
07:26 49.9 °F 47.4 °F 29.91 in East 0.9 mph 3.5 mph 91 % 0.00 in
07:31 49.9 °F 47.4 °F 29.91 in East 0.8 mph 2.3 mph 91 % 0.00 in
07:36 50.0 °F 47.8 °F 29.91 in East 1.8 mph 3.0 mph 92 % 0.00 in
07:41 50.0 °F 47.8 °F 29.91 in East 1.4 mph 3.5 mph 92 % 0.00 in
07:46 50.1 °F 47.9 °F 29.91 in East 1.4 mph 2.3 mph 92 % 0.00 in
07:51 50.1 °F 47.9 °F 29.91 in East 2.1 mph 3.5 mph 92 % 0.01 in
07:56 50.1 °F 47.9 °F 29.91 in East 1.6 mph 3.5 mph 92 % 0.01 in
08:01 50.1 °F 47.9 °F 29.91 in ESE 1.8 mph 2.3 mph 92 % 0.01 in
08:06 50.0 °F 47.8 °F 29.91 in ENE 2.2 mph 3.5 mph 92 % 0.01 in
08:11 49.9 °F 47.7 °F 29.91 in East 1.7 mph 3.5 mph 92 % 0.01 in
08:16 49.9 °F 48.0 °F 29.91 in East 1.3 mph 3.0 mph 93 % 0.01 in
08:21 49.8 °F 47.9 °F 29.91 in East 1.3 mph 2.3 mph 93 % 0.01 in
08:26 49.9 °F 48.0 °F 29.91 in East 1.5 mph 2.3 mph 93 % 0.02 in
08:32 50.0 °F 48.1 °F 29.91 in East 1.2 mph 2.3 mph 93 % 0.02 in
08:33 50.0 °F 48.1 °F 29.91 in East 1.6 mph 3.0 mph 93 % 0.02 in
08:38 50.0 °F 48.1 °F 29.91 in East 1.4 mph 3.5 mph 93 % 0.02 in
08:43 50.0 °F 48.1 °F 29.91 in East 1.5 mph 3.5 mph 93 % 0.02 in
08:48 50.0 °F 48.1 °F 29.92 in East 1.2 mph 2.3 mph 93 % 0.01 in
08:53 50.0 °F 48.3 °F 29.92 in East 1.1 mph 2.3 mph 94 % 0.01 in
08:58 50.0 °F 48.3 °F 29.92 in East 0.4 mph 1.2 mph 94 % 0.02 in
09:03 50.1 °F 48.4 °F 29.91 in East 0.9 mph 2.3 mph 94 % 0.02 in
09:08 50.1 °F 48.4 °F 29.91 in East 1.1 mph 2.3 mph 94 % 0.02 in
09:13 50.1 °F 48.4 °F 29.91 in East 1.1 mph 2.3 mph 94 % 0.03 in
09:18 50.2 °F 48.5 °F 29.91 in East 1.1 mph 2.3 mph 94 % 0.03 in
09:23 50.3 °F 48.6 °F 29.91 in East 1.4 mph 2.3 mph 94 % 0.02 in
09:28 50.2 °F 48.5 °F 29.91 in East 0.8 mph 2.3 mph 94 % 0.03 in
09:33 50.3 °F 48.6 °F 29.91 in East 0.4 mph 1.2 mph 94 % 0.03 in
09:34 50.3 °F 48.6 °F 29.91 in East 1.0 mph 2.3 mph 94 % 0.03 in
09:39 50.3 °F 48.6 °F 29.91 in East 1.0 mph 2.3 mph 94 % 0.04 in
09:44 50.3 °F 48.6 °F 29.91 in ESE 0.9 mph 2.3 mph 94 % 0.04 in
09:49 50.4 °F 49.0 °F 29.91 in NE 0.5 mph 2.0 mph 95 % 0.04 in
09:54 50.4 °F 49.0 °F 29.91 in ENE 1.5 mph 2.3 mph 95 % 0.04 in
09:59 50.4 °F 49.0 °F 29.91 in ENE 1.8 mph 3.5 mph 95 % 0.04 in
10:04 50.5 °F 49.1 °F 29.91 in ENE 1.7 mph 3.5 mph 95 % 0.05 in
10:09 50.6 °F 49.2 °F 29.91 in ENE 1.7 mph 3.0 mph 95 % 0.05 in
10:10 50.6 °F 49.2 °F 29.91 in ENE 2.3 mph 4.0 mph 95 % 0.04 in
10:15 50.6 °F 49.2 °F 29.91 in ENE 2.1 mph 3.5 mph 95 % 0.05 in
10:20 50.6 °F 49.2 °F 29.91 in ENE 2.0 mph 3.5 mph 95 % 0.06 in
10:25 50.6 °F 49.2 °F 29.91 in ENE 2.5 mph 4.0 mph 95 % 0.06 in
10:30 50.6 °F 49.2 °F 29.91 in ENE 2.1 mph 4.0 mph 95 % 0.05 in
10:36 50.6 °F 49.2 °F 29.91 in ENE 3.0 mph 8.0 mph 95 % 0.00 in
10:41 50.5 °F 49.1 °F 29.91 in ENE 2.0 mph 5.0 mph 95 % 0.00 in
10:46 50.4 °F 49.0 °F 29.91 in ENE 2.0 mph 7.0 mph 95 % 0.00 in
10:51 50.3 °F 48.9 °F 29.91 in ENE 3.0 mph 5.0 mph 95 % 0.00 in
10:56 50.2 °F 48.8 °F 29.90 in ENE 5.0 mph 8.0 mph 95 % 0.00 in
11:01 50.3 °F 49.2 °F 29.90 in ENE 3.2 mph 4.0 mph 96 % 0.06 in
11:06 50.2 °F 49.1 °F 29.90 in ENE 4.1 mph 5.8 mph 96 % 0.06 in
11:11 50.2 °F 48.8 °F 29.90 in ENE 2.9 mph 4.6 mph 95 % 0.06 in
11:16 50.2 °F 49.1 °F 29.90 in East 3.2 mph 4.6 mph 96 % 0.06 in
11:18 50.3 °F 49.2 °F 29.90 in East 2.5 mph 4.6 mph 96 % 0.07 in
11:23 50.2 °F 49.1 °F 29.90 in ENE 3.1 mph 4.6 mph 96 % 0.06 in
11:28 50.2 °F 49.1 °F 29.90 in East 2.9 mph 5.8 mph 96 % 0.06 in
11:33 50.3 °F 49.2 °F 29.90 in East 3.4 mph 4.6 mph 96 % 0.06 in
11:38 50.4 °F 49.3 °F 29.90 in East 3.1 mph 4.6 mph 96 % 0.06 in
11:43 50.5 °F 49.4 °F 29.89 in ENE 2.5 mph 3.5 mph 96 % 0.06 in
11:48 50.5 °F 49.4 °F 29.89 in ENE 2.5 mph 4.6 mph 96 % 0.05 in
11:53 50.5 °F 49.4 °F 29.89 in ENE 2.6 mph 4.6 mph 96 % 0.05 in
11:58 50.6 °F 49.5 °F 29.89 in East 3.4 mph 5.0 mph 96 % 0.04 in
12:03 50.8 °F 49.7 °F 29.89 in East 3.0 mph 5.0 mph 96 % 0.04 in
12:08 51.0 °F 49.9 °F 29.88 in ESE 3.3 mph 6.9 mph 96 % 0.04 in
12:13 51.3 °F 50.5 °F 29.88 in East 3.9 mph 5.8 mph 97 % 0.03 in
12:18 51.4 °F 50.6 °F 29.88 in East 3.8 mph 6.0 mph 97 % 0.02 in
12:23 51.3 °F 50.2 °F 29.88 in ENE 3.4 mph 5.8 mph 96 % 0.02 in
12:28 51.3 °F 50.2 °F 29.88 in East 3.9 mph 6.0 mph 96 % 0.02 in
12:33 51.4 °F 50.3 °F 29.88 in East 3.2 mph 4.6 mph 96 % 0.01 in
12:38 51.4 °F 50.3 °F 29.88 in ESE 4.6 mph 4.6 mph 96 % 0.01 in
12:43 51.4 °F 50.3 °F 29.88 in East 3.9 mph 5.8 mph 96 % 0.01 in
12:48 51.3 °F 50.2 °F 29.88 in ESE 3.9 mph 6.9 mph 96 % 0.01 in
12:53 51.1 °F 50.0 °F 29.88 in East 4.1 mph 6.9 mph 96 % 0.01 in
12:58 51.0 °F 49.9 °F 29.88 in East 4.4 mph 6.0 mph 96 % 0.01 in
13:04 51.0 °F 49.9 °F 29.88 in East 3.3 mph 5.8 mph 96 % 0.01 in
13:09 51.0 °F 49.9 °F 29.88 in East 3.8 mph 6.0 mph 96 % 0.00 in
13:14 51.0 °F 49.9 °F 29.88 in SE 4.3 mph 6.0 mph 96 % 0.01 in
13:16 50.9 °F 49.8 °F 29.88 in East 3.6 mph 6.9 mph 96 % 0.01 in
13:21 50.8 °F 49.7 °F 29.87 in East 3.1 mph 5.8 mph 96 % 0.01 in
13:26 50.7 °F 49.3 °F 29.87 in East 3.1 mph 5.0 mph 95 % 0.02 in
13:31 50.7 °F 49.6 °F 29.87 in East 4.2 mph 5.0 mph 96 % 0.02 in
13:36 50.6 °F 49.2 °F 29.86 in East 3.3 mph 5.8 mph 95 % 0.03 in
13:41 50.6 °F 49.5 °F 29.86 in East 3.1 mph 5.8 mph 96 % 0.04 in
13:46 50.6 °F 49.5 °F 29.85 in ENE 2.4 mph 4.6 mph 96 % 0.04 in
13:51 50.6 °F 49.5 °F 29.85 in ENE 2.2 mph 3.5 mph 96 % 0.05 in
13:56 50.8 °F 49.7 °F 29.85 in ESE 4.2 mph 5.8 mph 96 % 0.06 in
14:01 50.8 °F 49.7 °F 29.85 in East 2.9 mph 4.6 mph 96 % 0.06 in
14:06 50.8 °F 49.7 °F 29.85 in ENE 3.0 mph 6.9 mph 96 % 0.07 in
14:11 50.6 °F 49.5 °F 29.85 in East 3.6 mph 5.8 mph 96 % 0.08 in
14:16 50.8 °F 49.7 °F 29.85 in East 3.0 mph 5.8 mph 96 % 0.08 in
14:21 50.7 °F 49.6 °F 29.84 in East 2.7 mph 4.6 mph 96 % 0.09 in
14:26 50.6 °F 49.5 °F 29.84 in East 4.5 mph 6.0 mph 96 % 0.09 in
14:30 50.6 °F 49.5 °F 29.83 in East 4.3 mph 5.8 mph 96 % 0.10 in
14:35 50.5 °F 49.4 °F 29.83 in East 3.3 mph 4.6 mph 96 % 0.10 in
14:40 50.4 °F 49.3 °F 29.83 in East 4.8 mph 6.9 mph 96 % 0.11 in
14:45 50.4 °F 49.3 °F 29.83 in East 4.7 mph 7.0 mph 96 % 0.11 in
14:50 50.3 °F 49.2 °F 29.82 in East 5.4 mph 6.9 mph 96 % 0.11 in
14:55 50.3 °F 49.2 °F 29.82 in East 6.1 mph 8.1 mph 96 % 0.10 in
15:00 50.2 °F 49.1 °F 29.82 in ENE 5.4 mph 6.0 mph 96 % 0.11 in
15:05 50.1 °F 49.0 °F 29.82 in East 4.9 mph 7.0 mph 96 % 0.11 in
15:10 50.1 °F 49.3 °F 29.82 in East 5.0 mph 7.0 mph 97 % 0.00 in
15:15 50.1 °F 49.3 °F 29.81 in East 6.6 mph 8.1 mph 97 % 0.10 in
15:20 50.0 °F 49.2 °F 29.80 in East 7.0 mph 9.0 mph 97 % 0.01 in
15:25 50.0 °F 48.9 °F 29.80 in East 6.0 mph 9.0 mph 96 % 0.00 in
15:30 50.0 °F 49.2 °F 29.80 in East 7.0 mph 8.0 mph 97 % 0.00 in
15:36 50.1 °F 49.3 °F 29.80 in East 5.0 mph 8.0 mph 97 % 0.01 in
15:41 50.1 °F 49.3 °F 29.80 in East 6.0 mph 9.0 mph 97 % 0.00 in
15:46 50.1 °F 49.3 °F 29.81 in East 5.0 mph 8.0 mph 97 % 0.00 in
15:51 50.0 °F 49.2 °F 29.80 in East 5.0 mph 8.0 mph 97 % 0.00 in
15:56 49.6 °F 48.5 °F 29.80 in East 5.0 mph 10.0 mph 96 % 0.00 in
16:01 49.2 °F 48.1 °F 29.80 in East 6.5 mph 9.2 mph 96 % 0.11 in
16:06 48.9 °F 47.8 °F 29.81 in East 7.4 mph 10.4 mph 96 % 0.11 in
16:11 48.7 °F 47.6 °F 29.81 in East 6.3 mph 9.2 mph 96 % 0.10 in
16:16 48.5 °F 47.4 °F 29.81 in East 6.8 mph 9.2 mph 96 % 0.10 in
16:26 48.3 °F 47.2 °F 29.81 in East 5.2 mph 6.9 mph 96 % 0.09 in
16:31 48.2 °F 47.1 °F 29.81 in East 3.7 mph 8.1 mph 96 % 0.08 in
16:36 48.2 °F 47.1 °F 29.81 in East 6.9 mph 10.4 mph 96 % 0.07 in
16:41 48.1 °F 47.0 °F 29.80 in ENE 5.3 mph 11.5 mph 96 % 0.07 in
16:46 48.1 °F 47.0 °F 29.80 in ENE 6.9 mph 9.2 mph 96 % 0.07 in
16:51 48.1 °F 47.0 °F 29.79 in East 6.3 mph 11.5 mph 96 % 0.08 in
16:56 48.1 °F 47.0 °F 29.79 in East 6.1 mph 8.1 mph 96 % 0.08 in
17:00 48.1 °F 47.0 °F 29.79 in East 7.7 mph 12.7 mph 96 % 0.09 in
17:05 48.0 °F 46.9 °F 29.78 in East 7.6 mph 9.2 mph 96 % 0.09 in
17:10 48.0 °F 46.9 °F 29.78 in NE 7.2 mph 11.5 mph 96 % 0.09 in
17:12 47.9 °F 46.8 °F 29.78 in East 7.7 mph 15.0 mph 96 % 0.09 in
17:17 47.9 °F 46.8 °F 29.78 in East 8.3 mph 12.7 mph 96 % 0.09 in
17:22 47.8 °F 46.7 °F 29.79 in ENE 7.6 mph 11.5 mph 96 % 0.09 in
17:27 47.9 °F 46.8 °F 29.79 in East 6.3 mph 11.5 mph 96 % 0.09 in
17:32 48.0 °F 46.9 °F 29.79 in ENE 8.1 mph 11.5 mph 96 % 0.08 in
17:37 48.0 °F 46.9 °F 29.79 in ENE 7.0 mph 15.0 mph 96 % 0.08 in
17:42 47.9 °F 46.8 °F 29.79 in ENE 11.1 mph 16.1 mph 96 % 0.08 in
17:47 47.8 °F 46.7 °F 29.78 in ENE 11.8 mph 16.1 mph 96 % 0.08 in
17:52 47.7 °F 46.6 °F 29.78 in ENE 9.1 mph 17.3 mph 96 % 0.08 in
17:57 47.7 °F 46.6 °F 29.78 in ENE 9.2 mph 16.0 mph 96 % 0.08 in
18:02 47.6 °F 46.5 °F 29.78 in NE 9.8 mph 15.0 mph 96 % 0.08 in
18:07 47.5 °F 46.4 °F 29.78 in ENE 15.1 mph 19.6 mph 96 % 0.08 in
18:12 47.4 °F 46.3 °F 29.78 in East 9.1 mph 18.4 mph 96 % 0.09 in
18:17 47.3 °F 46.2 °F 29.78 in NE 10.8 mph 19.0 mph 96 % 0.08 in
18:22 47.3 °F 46.2 °F 29.78 in East 9.5 mph 15.0 mph 96 % 0.09 in
18:27 47.2 °F 46.1 °F 29.78 in ENE 13.3 mph 16.1 mph 96 % 0.09 in
18:32 47.3 °F 46.2 °F 29.78 in ENE 11.6 mph 16.0 mph 96 % 0.09 in
18:37 47.2 °F 46.1 °F 29.78 in ENE 13.4 mph 23.0 mph 96 % 0.10 in
18:42 47.2 °F 46.1 °F 29.77 in ENE 10.6 mph 18.4 mph 96 % 0.10 in
18:47 47.1 °F 46.0 °F 29.78 in ENE 13.3 mph 20.7 mph 96 % 0.10 in
18:52 46.9 °F 45.8 °F 29.77 in ENE 13.4 mph 21.9 mph 96 % 0.11 in
18:57 46.9 °F 45.8 °F 29.77 in ENE 13.9 mph 19.6 mph 96 % 0.11 in
19:02 46.8 °F 45.7 °F 29.77 in ENE 12.9 mph 23.0 mph 96 % 0.12 in
19:07 46.8 °F 45.7 °F 29.77 in ENE 15.6 mph 17.3 mph 96 % 0.12 in
19:12 46.7 °F 45.6 °F 29.77 in ENE 14.7 mph 26.0 mph 96 % 0.12 in
19:18 46.5 °F 45.4 °F 29.77 in ENE 10.8 mph 19.6 mph 96 % 0.12 in
19:23 46.5 °F 45.4 °F 29.77 in East 12.1 mph 15.0 mph 96 % 0.13 in
19:28 46.8 °F 46.0 °F 29.77 in ENE 14.3 mph 27.6 mph 97 % 0.13 in
19:33 46.5 °F 45.4 °F 29.76 in ENE 12.8 mph 18.4 mph 96 % 0.14 in
19:38 46.4 °F 45.3 °F 29.76 in East 13.9 mph 18.4 mph 96 % 0.14 in
19:43 46.4 °F 45.3 °F 29.76 in ENE 15.0 mph 24.2 mph 96 % 0.14 in
19:48 46.2 °F 45.1 °F 29.76 in ENE 12.8 mph 19.6 mph 96 % 0.13 in
19:53 46.2 °F 45.1 °F 29.77 in NE 11.5 mph 16.1 mph 96 % 0.13 in
19:58 46.3 °F 45.2 °F 29.77 in ENE 11.5 mph 17.3 mph 96 % 0.13 in
20:03 46.3 °F 45.5 °F 29.77 in NE 8.9 mph 14.0 mph 97 % 0.12 in
20:08 46.4 °F 45.3 °F 29.77 in ENE 11.7 mph 19.6 mph 96 % 0.12 in
20:13 46.2 °F 45.1 °F 29.77 in ENE 12.0 mph 16.1 mph 96 % 0.12 in
20:18 46.1 °F 45.0 °F 29.77 in ENE 10.6 mph 15.0 mph 96 % 0.12 in
20:23 46.3 °F 45.5 °F 29.77 in ENE 12.1 mph 20.7 mph 97 % 0.12 in
20:28 46.1 °F 45.0 °F 29.76 in ENE 8.7 mph 13.0 mph 96 % 0.11 in
20:33 46.3 °F 45.5 °F 29.77 in East 10.3 mph 13.0 mph 97 % 0.11 in
20:38 46.2 °F 45.1 °F 29.77 in ENE 10.0 mph 12.7 mph 96 % 0.11 in
20:43 46.4 °F 45.6 °F 29.77 in NE 4.7 mph 8.1 mph 97 % 0.11 in
20:47 46.5 °F 45.7 °F 29.77 in ENE 9.6 mph 16.0 mph 97 % 0.11 in
20:52 46.3 °F 45.2 °F 29.77 in ENE 9.1 mph 12.7 mph 96 % 0.11 in
20:57 46.1 °F 45.0 °F 29.77 in East 9.0 mph 12.7 mph 96 % 0.10 in
21:02 46.3 °F 45.5 °F 29.77 in NNE 7.3 mph 17.3 mph 97 % 0.10 in
21:07 46.5 °F 45.7 °F 29.76 in NNE 9.0 mph 16.0 mph 97 % 0.10 in
21:12 46.7 °F 45.9 °F 29.76 in NE 8.0 mph 11.5 mph 97 % 0.09 in
21:17 46.7 °F 45.9 °F 29.76 in North 6.4 mph 11.5 mph 97 % 0.08 in
21:22 46.7 °F 45.9 °F 29.76 in North 9.6 mph 11.5 mph 97 % 0.08 in
21:27 46.7 °F 45.9 °F 29.76 in North 10.6 mph 16.1 mph 97 % 0.09 in
21:32 46.7 °F 45.9 °F 29.76 in NE 8.9 mph 18.4 mph 97 % 0.08 in
21:38 46.7 °F 45.9 °F 29.76 in NNE 6.4 mph 16.0 mph 97 % 0.08 in
21:43 46.7 °F 45.9 °F 29.76 in NE 9.0 mph 19.6 mph 97 % 0.07 in
21:48 46.7 °F 45.9 °F 29.76 in NNE 8.6 mph 18.4 mph 97 % 0.07 in
21:53 46.6 °F 45.8 °F 29.76 in NNE 9.7 mph 13.8 mph 97 % 0.06 in
21:58 46.5 °F 45.7 °F 29.75 in NE 7.7 mph 19.6 mph 97 % 0.07 in
22:03 46.4 °F 45.6 °F 29.75 in North 9.2 mph 20.7 mph 97 % 0.07 in
22:08 46.3 °F 45.5 °F 29.75 in NNE 13.1 mph 19.6 mph 97 % 0.07 in
22:13 46.1 °F 45.3 °F 29.75 in NNE 10.9 mph 20.7 mph 97 % 0.08 in
22:18 46.0 °F 45.2 °F 29.76 in NE 10.9 mph 19.6 mph 97 % 0.09 in
22:23 45.9 °F 45.1 °F 29.75 in North 9.1 mph 19.6 mph 97 % 0.09 in
22:28 45.9 °F 45.1 °F 29.76 in NNE 11.9 mph 19.6 mph 97 % 0.09 in
22:33 45.9 °F 45.1 °F 29.76 in NNE 12.6 mph 20.7 mph 97 % 0.09 in
22:38 45.8 °F 45.0 °F 29.76 in NNE 11.2 mph 17.3 mph 97 % 0.09 in
22:43 45.8 °F 45.0 °F 29.76 in NE 10.7 mph 19.6 mph 97 % 0.08 in
22:48 45.8 °F 45.0 °F 29.75 in North 9.7 mph 13.8 mph 97 % 0.09 in
22:53 45.8 °F 45.0 °F 29.76 in NNE 12.3 mph 20.7 mph 97 % 0.08 in
22:58 45.8 °F 45.0 °F 29.75 in North 15.3 mph 24.2 mph 97 % 0.08 in
23:03 45.7 °F 44.9 °F 29.75 in North 13.5 mph 25.0 mph 97 % 0.07 in
23:08 45.8 °F 45.0 °F 29.75 in ENE 11.8 mph 21.0 mph 97 % 0.06 in
23:13 45.8 °F 45.0 °F 29.75 in NE 10.9 mph 21.0 mph 97 % 0.05 in
23:18 45.9 °F 45.1 °F 29.75 in NNE 11.0 mph 17.0 mph 97 % 0.04 in
23:23 46.0 °F 45.2 °F 29.74 in ENE 7.8 mph 19.6 mph 97 % 0.04 in
23:28 46.1 °F 45.3 °F 29.74 in North 8.7 mph 11.5 mph 97 % 0.03 in
23:33 46.1 °F 45.3 °F 29.74 in East 11.8 mph 17.3 mph 97 % 0.03 in
23:38 46.2 °F 45.4 °F 29.74 in North 10.3 mph 18.0 mph 97 % 0.03 in
23:43 46.3 °F 45.5 °F 29.74 in North 9.1 mph 15.0 mph 97 % 0.04 in
23:48 46.4 °F 45.6 °F 29.73 in North 7.4 mph 15.0 mph 97 % 0.04 in
23:53 46.5 °F 45.7 °F 29.74 in North 8.1 mph 20.0 mph 97 % 0.04 in
23:58 46.6 °F 45.8 °F 29.74 in NNE 9.6 mph 16.1 mph 97 % 0.05 in
Crab Meadow Weather
Compliments of Weather Underground - 3 mb

Script developed by  Jim McMurry - jmcmurry@mwt.net Adapted for the template by  Wim van der Kuil - Leuven-Template.eu

Lightning: Lightning's return stroke is hotter than the surface of the sun. Lightning is 50,000 degrees F. The sun is about 11,000 degrees F.